createdAt,value
2022-11-10T00:02:09.394Z,1.70
2022-11-10T00:04:37.153Z,1.87
2022-11-10T00:07:06.508Z,1.80
2022-11-10T00:09:34.299Z,2.00
2022-11-10T00:12:02.047Z,1.50
2022-11-10T00:14:47.307Z,1.63
2022-11-10T00:17:15.014Z,1.93
2022-11-10T00:19:42.718Z,2.20
2022-11-10T00:22:11.811Z,1.43
2022-11-10T00:24:39.541Z,2.43
2022-11-10T00:27:07.248Z,1.70
2022-11-10T00:29:35.899Z,1.60
2022-11-10T00:32:03.671Z,1.67
2022-11-10T00:34:31.443Z,1.60
2022-11-10T00:36:59.308Z,1.10
2022-11-10T00:39:28.419Z,1.20
2022-11-10T00:41:56.243Z,1.10
2022-11-10T00:44:24.002Z,1.27
2022-11-10T00:46:51.758Z,1.00
2022-11-10T00:49:19.580Z,1.10
2022-11-10T00:51:47.342Z,1.27
2022-11-10T00:54:15.132Z,0.70
2022-11-10T00:56:44.233Z,0.80
2022-11-10T00:59:11.980Z,0.87
2022-11-10T01:01:39.714Z,0.70
2022-11-10T01:04:07.906Z,0.50
2022-11-10T01:06:35.702Z,0.40
2022-11-10T01:09:03.742Z,0.60
2022-11-10T01:11:31.467Z,0.40
2022-11-10T01:14:00.520Z,0.20
2022-11-10T01:16:31.381Z,0.30
2022-11-10T01:19:00.916Z,0.40
2022-11-10T01:21:30.277Z,0.70
2022-11-10T01:23:58.563Z,0.47
2022-11-10T01:26:26.597Z,0.40
2022-11-10T01:28:54.311Z,0.40
2022-11-10T01:31:23.878Z,0.40
2022-11-10T01:33:51.611Z,0.40
2022-11-10T01:36:19.461Z,0.40
2022-11-10T01:38:47.290Z,0.40
2022-11-10T01:41:15.857Z,0.60
2022-11-10T01:43:43.857Z,0.50
2022-11-10T01:46:12.815Z,0.73
2022-11-10T01:48:45.645Z,0.57
2022-11-10T01:51:17.206Z,0.53
2022-11-10T01:53:49.149Z,0.50
2022-11-10T01:56:17.493Z,0.43
2022-11-10T01:58:54.917Z,0.50
2022-11-10T02:01:23.593Z,0.57
2022-11-10T02:03:56.884Z,0.40
2022-11-10T02:06:27.942Z,0.50
2022-11-10T02:08:58.403Z,0.43
2022-11-10T02:11:26.552Z,0.47
2022-11-10T02:13:54.730Z,0.40
2022-11-10T02:16:22.836Z,0.40
2022-11-10T02:18:51.999Z,0.40
2022-11-10T02:21:21.907Z,0.47
2022-11-10T02:23:51.429Z,0.40
2022-11-10T02:26:23.966Z,0.40
2022-11-10T02:28:51.755Z,0.30
2022-11-10T02:31:19.550Z,0.30
2022-11-10T02:33:47.264Z,0.30
2022-11-10T02:36:15.057Z,0.47
2022-11-10T02:38:44.109Z,0.80
2022-11-10T02:41:11.867Z,0.30
2022-11-10T02:43:40.206Z,0.40
2022-11-10T02:46:08.099Z,0.47
2022-11-10T02:48:35.823Z,0.50
2022-11-10T02:51:03.557Z,0.50
2022-11-10T02:53:37.109Z,0.80
2022-11-10T02:56:06.952Z,0.57
2022-11-10T02:58:34.631Z,0.40
2022-11-10T03:01:05.824Z,0.43
2022-11-10T03:03:34.024Z,0.70
2022-11-10T03:06:01.779Z,0.67
2022-11-10T03:08:29.545Z,0.90
2022-11-10T03:10:57.817Z,0.70
2022-11-10T03:13:35.700Z,1.10
2022-11-10T03:16:15.088Z,1.20
2022-11-10T03:18:42.833Z,1.47
2022-11-10T03:21:11.059Z,1.43
2022-11-10T03:23:38.825Z,1.30
2022-11-10T03:26:07.266Z,1.70
2022-11-10T03:28:36.407Z,1.70
2022-11-10T03:31:04.104Z,2.20
2022-11-10T03:33:31.855Z,2.20
2022-11-10T03:35:59.639Z,2.50
2022-11-10T03:38:27.376Z,2.47
2022-11-10T03:41:18.316Z,2.50
2022-11-10T03:43:44.139Z,2.90
2022-11-10T03:46:11.865Z,2.80
2022-11-10T03:48:39.639Z,2.93
2022-11-10T03:51:07.746Z,3.17
2022-11-10T03:53:35.509Z,3.47
2022-11-10T03:56:06.550Z,2.73
2022-11-10T03:58:34.250Z,3.80
2022-11-10T04:01:03.359Z,3.10
2022-11-10T04:03:31.122Z,3.20
2022-11-10T04:06:16.483Z,3.70
2022-11-10T04:09:02.440Z,3.03
2022-11-10T04:11:48.748Z,2.80
2022-11-10T04:14:34.453Z,3.60
2022-11-10T04:17:04.153Z,3.00
2022-11-10T04:19:32.866Z,3.57
2022-11-10T04:22:00.663Z,3.67
2022-11-10T04:24:28.379Z,3.93
2022-11-10T04:26:56.082Z,3.63
2022-11-10T04:29:23.795Z,3.40
2022-11-10T04:31:51.517Z,3.30
2022-11-10T04:34:20.575Z,3.00
2022-11-10T04:36:48.310Z,3.10
2022-11-10T04:39:16.006Z,3.23
2022-11-10T04:41:43.773Z,3.40
2022-11-10T04:44:11.478Z,3.23
2022-11-10T04:46:40.777Z,3.33
2022-11-10T04:49:09.063Z,3.27
2022-11-10T04:51:40.067Z,3.43
2022-11-10T04:54:08.627Z,3.30
2022-11-10T04:56:37.150Z,3.37
2022-11-10T04:59:04.889Z,3.07
2022-11-10T05:01:32.897Z,3.40
2022-11-10T05:04:01.141Z,3.50
2022-11-10T05:06:29.035Z,2.93
2022-11-10T05:08:58.211Z,3.47
2022-11-10T05:11:26.024Z,3.67
2022-11-10T05:13:53.755Z,3.93
2022-11-10T05:16:21.474Z,3.60
2022-11-10T05:18:53.988Z,3.67
2022-11-10T05:21:21.834Z,3.17
2022-11-10T05:23:49.570Z,3.10
2022-11-10T05:26:19.701Z,3.67
2022-11-10T05:28:47.745Z,3.10
2022-11-10T05:31:15.525Z,3.53
2022-11-10T05:33:43.233Z,3.30
2022-11-10T05:36:11.646Z,3.50
2022-11-10T05:38:43.541Z,3.40
2022-11-10T05:41:11.824Z,4.10
2022-11-10T05:43:40.943Z,3.67
2022-11-10T05:46:08.779Z,3.20
2022-11-10T05:48:36.478Z,3.37
2022-11-10T05:51:04.424Z,3.40
2022-11-10T05:53:32.213Z,3.47
2022-11-10T05:55:59.939Z,3.40
2022-11-10T05:58:27.779Z,3.13
2022-11-10T06:00:59.166Z,3.40
2022-11-10T06:03:27.358Z,3.40
2022-11-10T06:05:55.477Z,3.93
2022-11-10T06:08:23.187Z,4.10
2022-11-10T06:10:50.939Z,4.23
2022-11-10T06:13:18.860Z,4.80
2022-11-10T06:15:50.439Z,4.33
2022-11-10T06:18:19.881Z,4.67
2022-11-10T06:20:47.822Z,5.77
2022-11-10T06:23:15.686Z,5.60
2022-11-10T06:25:44.624Z,4.70
2022-11-10T06:28:12.865Z,5.20
2022-11-10T06:30:40.617Z,5.50
2022-11-10T06:33:08.319Z,5.60
2022-11-10T06:35:37.529Z,4.40
2022-11-10T06:38:06.993Z,4.97
2022-11-10T06:40:35.133Z,4.87
2022-11-10T06:43:03.149Z,4.73
2022-11-10T06:45:30.948Z,5.27
2022-11-10T06:48:02.512Z,4.67
2022-11-10T06:50:30.393Z,4.67
2022-11-10T06:53:01.275Z,6.03
2022-11-10T06:55:29.505Z,5.17
2022-11-10T06:57:57.580Z,5.50
2022-11-10T07:00:26.894Z,5.67
2022-11-10T07:03:05.435Z,4.77
2022-11-10T07:05:35.326Z,4.93
2022-11-10T07:08:05.271Z,5.97
2022-11-10T07:10:33.714Z,5.83
2022-11-10T07:13:03.302Z,5.93
2022-11-10T07:15:31.478Z,5.77
2022-11-10T07:17:59.316Z,5.87
2022-11-10T07:20:28.394Z,5.03
2022-11-10T07:22:59.201Z,5.07
2022-11-10T07:25:28.830Z,5.33
2022-11-10T07:27:57.401Z,5.77
2022-11-10T07:30:25.303Z,5.33
2022-11-10T07:32:59.947Z,6.13
2022-11-10T07:35:30.741Z,6.10
2022-11-10T07:37:59.318Z,5.90
2022-11-10T07:40:28.473Z,5.67
2022-11-10T07:42:56.177Z,6.10
2022-11-10T07:45:24.308Z,5.40
2022-11-10T07:47:52.092Z,5.67
2022-11-10T07:50:20.132Z,6.87
2022-11-10T07:52:47.927Z,6.30
2022-11-10T07:55:15.743Z,6.07
2022-11-10T07:57:44.812Z,6.27
2022-11-10T08:00:13.671Z,6.97
2022-11-10T08:02:41.447Z,7.60
2022-11-10T08:05:10.041Z,7.67
2022-11-10T08:07:37.850Z,8.07
2022-11-10T08:10:06.348Z,7.90
2022-11-10T08:12:34.060Z,8.67
2022-11-10T08:15:03.162Z,8.83
2022-11-10T08:17:30.889Z,8.63
2022-11-10T08:19:58.636Z,9.83
2022-11-10T08:22:26.748Z,9.17
2022-11-10T08:24:54.449Z,9.97
2022-11-10T08:27:22.668Z,9.63
2022-11-10T08:29:50.390Z,9.73
2022-11-10T08:32:19.624Z,9.73
2022-11-10T08:34:47.324Z,9.93
2022-11-10T08:37:15.031Z,9.50
2022-11-10T08:39:42.744Z,9.50
2022-11-10T08:42:10.425Z,8.40
2022-11-10T08:44:38.215Z,10.57
2022-11-10T08:47:06.020Z,9.80
2022-11-10T08:49:35.091Z,9.80
2022-11-10T08:52:02.889Z,9.90
2022-11-10T08:54:30.585Z,9.47
2022-11-10T08:56:58.293Z,11.00
2022-11-10T08:59:26.191Z,9.13
2022-11-10T09:01:53.884Z,10.27
2022-11-10T09:04:21.680Z,10.17
2022-11-10T09:06:50.810Z,9.83
2022-11-10T09:09:18.805Z,9.00
2022-11-10T09:11:46.516Z,7.97
2022-11-10T09:14:15.877Z,8.90
2022-11-10T09:16:43.567Z,7.90
2022-11-10T09:19:14.310Z,7.60
2022-11-10T09:21:46.279Z,7.43
2022-11-10T09:24:15.448Z,7.97
2022-11-10T09:26:45.242Z,6.90
2022-11-10T09:29:13.105Z,6.40
2022-11-10T09:31:40.865Z,6.80
2022-11-10T09:34:08.620Z,5.87
2022-11-10T09:36:40.354Z,7.33
2022-11-10T09:39:08.179Z,6.87
2022-11-10T09:41:40.404Z,6.57
2022-11-10T09:44:15.793Z,5.60
2022-11-10T09:46:47.097Z,5.67
2022-11-10T09:49:30.841Z,5.73
2022-11-10T09:52:00.240Z,5.00
2022-11-10T09:54:36.937Z,5.57
2022-11-10T09:57:08.533Z,5.70
2022-11-10T09:59:37.412Z,5.57
2022-11-10T10:02:14.242Z,5.90
2022-11-10T10:05:04.687Z,5.33
2022-11-10T10:07:43.469Z,5.20
2022-11-10T10:10:17.780Z,5.07
2022-11-10T10:13:06.886Z,5.27
2022-11-10T10:15:45.007Z,4.77
2022-11-10T10:18:27.388Z,4.77
2022-11-10T10:21:07.106Z,4.77
2022-11-10T10:26:29.044Z,5.23
2022-11-10T10:29:02.338Z,5.43
2022-11-10T10:31:35.531Z,5.57
2022-11-10T10:34:05.113Z,5.67
2022-11-10T10:36:32.887Z,4.47
2022-11-10T10:39:03.957Z,5.73
2022-11-10T10:41:33.518Z,5.37
2022-11-10T10:44:04.032Z,5.40
2022-11-10T10:46:35.762Z,4.87
2022-11-10T10:49:27.991Z,5.03
2022-11-10T10:52:08.049Z,4.70
2022-11-10T10:54:37.045Z,4.77
2022-11-10T10:57:07.971Z,5.53
2022-11-10T10:59:37.047Z,6.03
2022-11-10T11:02:04.771Z,5.73
2022-11-10T11:04:34.966Z,5.23
2022-11-10T11:07:04.794Z,5.37
2022-11-10T11:09:42.038Z,4.80
2022-11-10T11:12:12.776Z,5.93
2022-11-10T11:14:45.805Z,5.53
2022-11-10T11:17:19.004Z,6.33
2022-11-10T11:19:46.942Z,5.93
2022-11-10T11:22:49.883Z,6.33
2022-11-10T11:25:24.101Z,4.87
2022-11-10T11:28:00.726Z,5.67
2022-11-10T11:30:43.690Z,5.63
2022-11-10T11:33:22.918Z,6.27
2022-11-10T11:35:57.323Z,5.43
2022-11-10T11:38:32.507Z,5.03
2022-11-10T11:41:14.216Z,5.70
2022-11-10T11:44:06.343Z,5.13
2022-11-10T11:46:48.952Z,4.87
2022-11-10T11:49:37.376Z,4.87
2022-11-10T11:52:12.663Z,4.70
2022-11-10T11:54:57.878Z,4.13
2022-11-10T11:57:40.383Z,4.87
2022-11-10T12:00:11.674Z,4.80
2022-11-10T12:03:23.358Z,4.97
2022-11-10T12:06:06.344Z,4.63
2022-11-10T12:08:41.653Z,5.03
2022-11-10T12:11:21.285Z,4.37
2022-11-10T12:14:01.093Z,3.70
2022-11-10T12:16:31.714Z,5.43
2022-11-10T12:19:14.177Z,5.00
2022-11-10T12:21:49.894Z,5.10
2022-11-10T12:24:39.411Z,4.83
2022-11-10T12:27:15.434Z,5.30
2022-11-10T12:29:47.413Z,5.63
2022-11-10T12:32:20.397Z,5.47
2022-11-10T12:34:54.279Z,5.77
2022-11-10T12:37:29.429Z,5.17
2022-11-10T12:40:02.878Z,4.97
2022-11-10T12:42:33.794Z,4.80
2022-11-10T12:45:03.549Z,4.63
2022-11-10T12:47:39.025Z,5.17
2022-11-10T12:50:26.865Z,4.67
2022-11-10T12:52:58.478Z,4.60
2022-11-10T12:55:35.905Z,4.63
2022-11-10T12:58:06.207Z,5.00
2022-11-10T13:00:40.667Z,4.47
2022-11-10T13:03:26.416Z,4.80
2022-11-10T13:06:01.516Z,4.47
2022-11-10T13:08:36.073Z,4.80
2022-11-10T13:11:08.517Z,4.87
2022-11-10T13:13:45.478Z,5.03
2022-11-10T13:16:54.142Z,4.40
2022-11-10T13:19:51.133Z,5.03
2022-11-10T13:22:40.818Z,4.77
2022-11-10T13:25:47.027Z,4.43
2022-11-10T13:28:14.789Z,4.60
2022-11-10T13:30:45.542Z,4.40
2022-11-10T13:33:36.048Z,4.97
2022-11-10T13:36:04.175Z,4.60
2022-11-10T13:38:39.069Z,5.27
2022-11-10T13:41:24.773Z,4.97
2022-11-10T13:43:54.233Z,4.33
2022-11-10T13:46:32.040Z,4.90
2022-11-10T13:49:35.925Z,4.27
2022-11-10T13:52:11.400Z,4.67
2022-11-10T13:55:02.953Z,4.77
2022-11-10T13:57:36.216Z,4.40
2022-11-10T14:00:24.956Z,4.10
2022-11-10T14:02:55.589Z,4.33
2022-11-10T14:06:03.322Z,4.40
2022-11-10T14:08:38.770Z,4.27
2022-11-10T14:11:14.672Z,3.87
2022-11-10T14:13:45.885Z,4.57
2022-11-10T14:16:18.513Z,4.30
2022-11-10T14:18:56.445Z,3.93
2022-11-10T14:21:29.503Z,4.30
2022-11-10T14:24:04.045Z,3.67
2022-11-10T14:26:37.971Z,4.40
2022-11-10T14:29:38.445Z,4.23
2022-11-10T14:32:13.838Z,4.40
2022-11-10T14:34:47.836Z,4.40
2022-11-10T14:37:22.778Z,3.73
2022-11-10T14:39:53.718Z,4.27
2022-11-10T14:42:25.663Z,3.67
2022-11-10T14:45:07.245Z,4.30
2022-11-10T14:47:35.926Z,3.37
2022-11-10T14:50:18.717Z,4.07
2022-11-10T14:52:48.656Z,3.97
2022-11-10T14:55:20.535Z,4.03
2022-11-10T14:57:52.804Z,4.00
2022-11-10T15:00:26.257Z,4.13
2022-11-10T15:02:56.699Z,4.30
2022-11-10T15:05:25.585Z,4.60
2022-11-10T15:07:55.928Z,4.07
2022-11-10T15:10:27.371Z,4.70
2022-11-10T15:13:05.598Z,3.80
2022-11-10T15:15:33.469Z,3.80
2022-11-10T15:18:01.169Z,4.30
2022-11-10T15:20:40.599Z,4.00
2022-11-10T15:23:22.045Z,4.03
2022-11-10T15:25:53.207Z,4.30
2022-11-10T15:28:30.590Z,4.57
2022-11-10T15:31:00.785Z,3.33
2022-11-10T15:33:32.184Z,3.67
2022-11-10T15:36:16.159Z,4.60
2022-11-10T15:38:44.247Z,4.00
2022-11-10T15:41:16.899Z,3.63
2022-11-10T15:43:45.987Z,3.93
2022-11-10T15:46:19.469Z,3.80
2022-11-10T15:48:49.618Z,3.87
2022-11-10T15:51:25.623Z,3.80
2022-11-10T15:53:54.772Z,3.87
2022-11-10T15:56:24.939Z,4.13
2022-11-10T15:59:00.594Z,4.50
2022-11-10T16:01:29.850Z,4.30
2022-11-10T16:03:57.761Z,3.80
2022-11-10T16:06:25.465Z,4.37
2022-11-10T16:08:53.383Z,3.93
2022-11-10T16:11:22.614Z,4.03
2022-11-10T16:13:52.935Z,4.50
2022-11-10T16:16:23.994Z,4.60
2022-11-10T16:18:52.241Z,4.03
2022-11-10T16:21:22.161Z,4.27
2022-11-10T16:23:50.511Z,4.30
2022-11-10T16:26:22.439Z,4.07
2022-11-10T16:28:51.851Z,4.17
2022-11-10T16:31:22.532Z,4.90
2022-11-10T16:33:51.674Z,4.07
2022-11-10T16:36:25.297Z,4.00
2022-11-10T16:38:54.051Z,4.30
2022-11-10T16:41:21.963Z,4.07
2022-11-10T16:43:50.108Z,4.80
2022-11-10T16:46:20.857Z,3.87
2022-11-10T16:48:49.633Z,4.40
2022-11-10T16:51:18.989Z,4.00
2022-11-10T16:53:46.916Z,3.67
2022-11-10T16:56:15.624Z,3.73
2022-11-10T16:58:43.484Z,4.20
2022-11-10T17:01:19.416Z,3.87
2022-11-10T17:03:49.813Z,3.93
2022-11-10T17:06:21.559Z,3.47
2022-11-10T17:08:51.248Z,3.40
2022-11-10T17:11:19.009Z,4.07
2022-11-10T17:13:46.910Z,3.90
2022-11-10T17:16:21.864Z,3.90
2022-11-10T17:18:50.633Z,4.03
2022-11-10T17:21:21.176Z,3.80
2022-11-10T17:23:49.018Z,3.97
2022-11-10T17:26:19.200Z,3.33
2022-11-10T17:28:47.068Z,3.13
2022-11-10T17:31:15.794Z,3.00
2022-11-10T17:33:43.543Z,3.50
2022-11-10T17:36:15.447Z,3.37
2022-11-10T17:38:45.022Z,3.00
2022-11-10T17:41:16.315Z,3.33
2022-11-10T17:43:45.921Z,3.00
2022-11-10T17:46:17.269Z,3.30
2022-11-10T17:48:46.884Z,3.10
2022-11-10T17:51:19.245Z,2.63
2022-11-10T17:53:50.548Z,2.90
2022-11-10T17:56:18.820Z,2.23
2022-11-10T17:58:46.575Z,2.30
2022-11-10T18:01:19.598Z,2.90
2022-11-10T18:03:47.821Z,2.70
2022-11-10T18:06:16.055Z,2.27
2022-11-10T18:08:44.428Z,2.80
2022-11-10T18:11:16.224Z,2.17
2022-11-10T18:13:44.517Z,2.83
2022-11-10T18:16:13.896Z,2.70
2022-11-10T18:18:42.266Z,2.80
2022-11-10T18:21:11.153Z,2.37
2022-11-10T18:23:39.103Z,2.20
2022-11-10T18:26:08.405Z,1.93
2022-11-10T18:28:37.472Z,2.47
2022-11-10T18:31:09.394Z,2.43
2022-11-10T18:33:37.137Z,2.00
2022-11-10T18:36:05.524Z,2.47
2022-11-10T18:38:33.262Z,2.60
2022-11-10T18:41:24.589Z,2.33
2022-11-10T18:43:53.864Z,2.10
2022-11-10T18:46:21.667Z,2.27
2022-11-10T18:48:49.423Z,2.23
2022-11-10T18:51:17.684Z,1.87
2022-11-10T18:53:45.417Z,2.50
2022-11-10T18:56:14.353Z,2.70
2022-11-10T18:58:42.338Z,1.87
2022-11-10T19:01:12.216Z,2.27
2022-11-10T19:03:40.048Z,2.30
2022-11-10T19:06:08.283Z,2.43
2022-11-10T19:08:36.666Z,2.30
2022-11-10T19:11:07.099Z,2.40
2022-11-10T19:13:34.884Z,2.27
2022-11-10T19:16:04.998Z,2.50
2022-11-10T19:18:34.591Z,2.40
2022-11-10T19:21:06.473Z,2.30
2022-11-10T19:23:34.253Z,2.60
2022-11-10T19:26:02.139Z,2.20
2022-11-10T19:28:30.444Z,1.97
2022-11-10T19:31:01.436Z,2.00
2022-11-10T19:33:30.533Z,1.83
2022-11-10T19:36:03.264Z,2.43
2022-11-10T19:38:31.445Z,2.50
2022-11-10T19:41:00.112Z,2.27
2022-11-10T19:43:30.827Z,2.07
2022-11-10T19:46:02.423Z,1.87
2022-11-10T19:48:31.131Z,1.90
2022-11-10T19:51:01.112Z,2.40
2022-11-10T19:53:29.743Z,2.00
2022-11-10T19:56:01.883Z,2.10
2022-11-10T19:58:30.176Z,2.80
2022-11-10T20:01:00.110Z,1.90
2022-11-10T20:03:32.549Z,2.00
2022-11-10T20:06:04.293Z,1.77
2022-11-10T20:08:32.589Z,2.10
2022-11-10T20:11:01.886Z,2.10
2022-11-10T20:13:30.491Z,2.07
2022-11-10T20:15:58.607Z,2.13
2022-11-10T20:18:26.591Z,2.13
2022-11-10T20:20:54.665Z,1.70
2022-11-10T20:23:24.310Z,1.83
2022-11-10T20:26:02.668Z,2.60
2022-11-10T20:28:30.743Z,2.30
2022-11-10T20:30:59.818Z,2.00
2022-11-10T20:33:28.419Z,1.50
2022-11-10T20:35:56.251Z,1.63
2022-11-10T20:38:25.551Z,1.90
2022-11-10T20:41:02.818Z,2.27
2022-11-10T20:43:30.944Z,1.83
2022-11-10T20:45:58.931Z,1.60
2022-11-10T20:48:26.750Z,1.80
2022-11-10T20:50:54.653Z,2.23
2022-11-10T20:53:22.715Z,2.10
2022-11-10T20:55:57.703Z,2.20
2022-11-10T20:58:26.642Z,1.70
2022-11-10T21:00:54.624Z,1.60
2022-11-10T21:03:23.578Z,2.00
2022-11-10T21:05:55.344Z,1.63
2022-11-10T21:08:23.829Z,1.93
2022-11-10T21:10:54.413Z,1.73
2022-11-10T21:13:24.062Z,1.60
2022-11-10T21:15:53.612Z,1.43
2022-11-10T21:18:22.248Z,1.87
2022-11-10T21:20:51.424Z,2.03
2022-11-10T21:23:19.293Z,1.83
2022-11-10T21:25:55.521Z,2.17
2022-11-10T21:28:23.373Z,1.93
2022-11-10T21:30:51.636Z,2.07
2022-11-10T21:33:19.441Z,1.83
2022-11-10T21:35:47.205Z,1.53
2022-11-10T21:38:15.179Z,1.73
2022-11-10T21:40:43.114Z,1.70
2022-11-10T21:43:12.256Z,2.43
2022-11-10T21:45:39.999Z,2.13
2022-11-10T21:48:10.946Z,2.00
2022-11-10T21:50:38.719Z,2.10
2022-11-10T21:53:07.994Z,1.50
2022-11-10T21:55:35.841Z,1.67
2022-11-10T21:58:03.529Z,1.67
2022-11-10T22:00:32.701Z,1.83
2022-11-10T22:03:01.274Z,1.83
2022-11-10T22:05:29.552Z,2.57
2022-11-10T22:07:57.334Z,1.67
2022-11-10T22:10:42.795Z,1.70
2022-11-10T22:13:33.674Z,2.30
2022-11-10T22:16:20.245Z,2.03
2022-11-10T22:18:48.383Z,1.37
2022-11-10T22:21:16.075Z,2.00
2022-11-10T22:24:01.375Z,1.80
2022-11-10T22:26:29.087Z,1.83
2022-11-10T22:28:56.861Z,1.80
2022-11-10T22:31:25.999Z,1.90
2022-11-10T22:33:53.699Z,1.90
2022-11-10T22:36:22.120Z,2.07
2022-11-10T22:38:50.321Z,1.73
2022-11-10T22:41:35.839Z,1.50
2022-11-10T22:44:06.683Z,1.93
2022-11-10T22:46:37.668Z,2.07
2022-11-10T22:49:07.874Z,1.73
2022-11-10T22:51:35.968Z,1.73
2022-11-10T22:54:04.863Z,1.57
2022-11-10T22:56:34.150Z,1.53
2022-11-10T22:59:01.919Z,1.50
2022-11-10T23:01:29.961Z,1.27
2022-11-10T23:03:59.886Z,1.60
2022-11-10T23:06:28.082Z,1.40
2022-11-10T23:08:56.210Z,1.60
2022-11-10T23:11:27.503Z,1.40
2022-11-10T23:13:55.630Z,1.50
2022-11-10T23:16:26.129Z,1.47
2022-11-10T23:18:55.322Z,1.67
2022-11-10T23:21:26.206Z,1.77
2022-11-10T23:23:54.611Z,1.87
2022-11-10T23:26:24.233Z,1.33
2022-11-10T23:28:52.962Z,1.30
2022-11-10T23:31:22.517Z,1.10
2022-11-10T23:33:52.487Z,1.30
2022-11-10T23:36:21.721Z,1.83
2022-11-10T23:38:50.810Z,1.70
2022-11-10T23:41:20.363Z,1.67
2022-11-10T23:43:48.518Z,2.00
2022-11-10T23:46:16.479Z,1.30
2022-11-10T23:48:44.569Z,1.50
2022-11-10T23:51:14.320Z,1.60
2022-11-10T23:53:42.416Z,1.20
2022-11-10T23:56:13.317Z,1.63
2022-11-10T23:58:41.289Z,1.27
